sensor_id;sensor_type;location;lat;lon;timestamp;pressure;altitude;pressure_sealevel;temperature;humidity
62072;BME280;48031;48.542;13.232;2023-07-29T00:02:49;96996.28;;;23.26;99.17
62072;BME280;48031;48.542;13.232;2023-07-29T00:06:51;96984.06;;;24.12;82.92
62072;BME280;48031;48.542;13.232;2023-07-29T00:10:53;96989.31;;;23.89;78.50
62072;BME280;48031;48.542;13.232;2023-07-29T00:14:55;96981.34;;;23.51;77.38
62072;BME280;48031;48.542;13.232;2023-07-29T00:18:57;96972.84;;;25.63;74.43
62072;BME280;48031;48.542;13.232;2023-07-29T00:23:00;96970.25;;;26.05;68.13
62072;BME280;48031;48.542;13.232;2023-07-29T00:27:03;96972.03;;;25.62;68.87
62072;BME280;48031;48.542;13.232;2023-07-29T00:31:05;96970.22;;;25.54;68.41
62072;BME280;48031;48.542;13.232;2023-07-29T00:35:08;96959.09;;;25.54;67.77
62072;BME280;48031;48.542;13.232;2023-07-29T00:39:11;96952.97;;;25.96;67.44
62072;BME280;48031;48.542;13.232;2023-07-29T00:43:13;96963.25;;;24.58;70.44
62072;BME280;48031;48.542;13.232;2023-07-29T00:47:16;96968.44;;;24.87;72.52
62072;BME280;48031;48.542;13.232;2023-07-29T00:51:20;96970.22;;;24.12;73.73
62072;BME280;48031;48.542;13.232;2023-07-29T00:55:24;96972.78;;;23.92;74.82
62072;BME280;48031;48.542;13.232;2023-07-29T00:59:26;96960.78;;;23.40;77.29
62072;BME280;48031;48.542;13.232;2023-07-29T01:03:29;96965.75;;;23.71;77.53
62072;BME280;48031;48.542;13.232;2023-07-29T01:11:57;96972.41;;;23.21;79.37
62072;BME280;48031;48.542;13.232;2023-07-29T01:16:10;96972.72;;;23.07;77.96
62072;BME280;48031;48.542;13.232;2023-07-29T01:20:16;96974.34;;;23.20;80.04
62072;BME280;48031;48.542;13.232;2023-07-29T01:24:19;96975.19;;;23.33;78.96
62072;BME280;48031;48.542;13.232;2023-07-29T01:28:21;96976.50;;;22.70;79.90
62072;BME280;48031;48.542;13.232;2023-07-29T01:36:41;61634.44;;;-142.07;100.00
62072;BME280;48031;48.542;13.232;2023-07-29T01:40:47;96977.16;;;23.33;81.15
62072;BME280;48031;48.542;13.232;2023-07-29T01:44:51;96977.03;;;23.29;79.42
62072;BME280;48031;48.542;13.232;2023-07-29T01:48:53;96975.19;;;23.94;74.98
62072;BME280;48031;48.542;13.232;2023-07-29T01:52:55;96980.94;;;24.13;72.63
62072;BME280;48031;48.542;13.232;2023-07-29T01:56:57;96969.22;;;24.44;71.81
62072;BME280;48031;48.542;13.232;2023-07-29T02:00:59;96977.38;;;24.53;70.11
62072;BME280;48031;48.542;13.232;2023-07-29T02:05:01;96971.22;;;24.87;69.48
62072;BME280;48031;48.542;13.232;2023-07-29T02:09:04;96964.47;;;25.00;69.14
62072;BME280;48031;48.542;13.232;2023-07-29T02:13:06;96967.19;;;24.84;70.51
62072;BME280;48031;48.542;13.232;2023-07-29T02:17:09;96969.97;;;24.84;71.14
62072;BME280;48031;48.542;13.232;2023-07-29T02:21:11;96967.63;;;24.86;68.26
62072;BME280;48031;48.542;13.232;2023-07-29T02:25:13;96965.44;;;24.80;69.84
62072;BME280;48031;48.542;13.232;2023-07-29T02:29:14;96963.03;;;24.91;68.63
62072;BME280;48031;48.542;13.232;2023-07-29T02:33:17;96964.78;;;24.55;69.51
62072;BME280;48031;48.542;13.232;2023-07-29T02:37:19;96954.22;;;24.61;70.36
62072;BME280;48031;48.542;13.232;2023-07-29T02:41:22;96963.50;;;24.53;70.62
62072;BME280;48031;48.542;13.232;2023-07-29T02:45:24;96958.25;;;24.91;69.22
62072;BME280;48031;48.542;13.232;2023-07-29T02:49:27;96968.44;;;24.59;69.21
62072;BME280;48031;48.542;13.232;2023-07-29T02:53:29;96963.50;;;24.53;69.13
62072;BME280;48031;48.542;13.232;2023-07-29T02:57:31;96959.34;;;25.02;66.73
62072;BME280;48031;48.542;13.232;2023-07-29T03:01:34;96961.56;;;24.69;69.00
62072;BME280;48031;48.542;13.232;2023-07-29T03:05:36;96971.09;;;24.40;68.63
62072;BME280;48031;48.542;13.232;2023-07-29T03:09:40;96972.13;;;24.35;68.15
62072;BME280;48031;48.542;13.232;2023-07-29T03:13:43;96975.03;;;24.95;67.99
62072;BME280;48031;48.542;13.232;2023-07-29T03:17:46;96971.84;;;25.24;66.45
62072;BME280;48031;48.542;13.232;2023-07-29T03:21:49;96986.69;;;24.72;68.45
62072;BME280;48031;48.542;13.232;2023-07-29T03:25:51;96982.66;;;24.85;67.00
62072;BME280;48031;48.542;13.232;2023-07-29T03:29:58;96980.94;;;25.09;67.79
62072;BME280;48031;48.542;13.232;2023-07-29T03:34:01;96985.91;;;25.47;65.67
62072;BME280;48031;48.542;13.232;2023-07-29T03:38:03;96987.59;;;25.36;65.34
62072;BME280;48031;48.542;13.232;2023-07-29T03:42:06;96987.28;;;25.69;65.34
62072;BME280;48031;48.542;13.232;2023-07-29T03:46:09;96977.88;;;24.70;66.93
62072;BME280;48031;48.542;13.232;2023-07-29T03:50:14;96981.88;;;24.57;68.08
62072;BME280;48031;48.542;13.232;2023-07-29T03:54:16;96989.84;;;24.59;68.00
62072;BME280;48031;48.542;13.232;2023-07-29T03:58:19;96979.25;;;25.36;65.40
62072;BME280;48031;48.542;13.232;2023-07-29T04:02:20;96988.59;;;24.84;66.73
62072;BME280;48031;48.542;13.232;2023-07-29T04:06:23;96994.66;;;24.46;67.83
62072;BME280;48031;48.542;13.232;2023-07-29T04:10:26;97004.91;;;24.18;68.38
62072;BME280;48031;48.542;13.232;2023-07-29T04:14:29;96994.78;;;24.37;67.45
62072;BME280;48031;48.542;13.232;2023-07-29T04:18:31;96998.09;;;24.43;67.72
62072;BME280;48031;48.542;13.232;2023-07-29T04:22:34;97009.59;;;24.17;68.34
62072;BME280;48031;48.542;13.232;2023-07-29T04:26:37;96999.50;;;25.05;65.89
62072;BME280;48031;48.542;13.232;2023-07-29T04:30:40;97009.75;;;24.89;65.77
62072;BME280;48031;48.542;13.232;2023-07-29T04:34:42;97006.69;;;23.41;71.11
62072;BME280;48031;48.542;13.232;2023-07-29T04:38:44;97008.44;;;23.45;73.55
62072;BME280;48031;48.542;13.232;2023-07-29T04:42:46;97001.31;;;23.81;69.16
62072;BME280;48031;48.542;13.232;2023-07-29T04:46:48;97001.75;;;24.07;68.67
62072;BME280;48031;48.542;13.232;2023-07-29T04:50:51;97005.78;;;24.10;70.15
62072;BME280;48031;48.542;13.232;2023-07-29T04:54:53;97003.63;;;23.79;70.72
62072;BME280;48031;48.542;13.232;2023-07-29T04:58:55;97008.72;;;24.53;69.23
62072;BME280;48031;48.542;13.232;2023-07-29T05:02:57;97005.25;;;24.56;68.20
62072;BME280;48031;48.542;13.232;2023-07-29T05:06:59;97014.69;;;24.15;70.47
62072;BME280;48031;48.542;13.232;2023-07-29T05:11:01;97007.41;;;24.35;69.47
62072;BME280;48031;48.542;13.232;2023-07-29T05:15:05;97000.50;;;24.57;68.14
62072;BME280;48031;48.542;13.232;2023-07-29T05:19:07;97012.81;;;24.31;69.67
62072;BME280;48031;48.542;13.232;2023-07-29T05:23:09;96996.31;;;24.35;69.97
62072;BME280;48031;48.542;13.232;2023-07-29T05:27:11;96989.16;;;24.90;69.04
62072;BME280;48031;48.542;13.232;2023-07-29T05:31:13;96980.72;;;25.30;67.94
62072;BME280;48031;48.542;13.232;2023-07-29T05:35:15;96983.88;;;25.59;65.99
62072;BME280;48031;48.542;13.232;2023-07-29T05:39:17;96987.38;;;25.56;65.17
62072;BME280;48031;48.542;13.232;2023-07-29T05:43:20;96978.16;;;25.09;67.37
62072;BME280;48031;48.542;13.232;2023-07-29T05:47:22;96978.53;;;26.01;64.64
62072;BME280;48031;48.542;13.232;2023-07-29T05:51:24;96975.31;;;25.52;65.83
62072;BME280;48031;48.542;13.232;2023-07-29T05:55:26;96968.22;;;26.02;64.76
62072;BME280;48031;48.542;13.232;2023-07-29T05:59:29;96976.34;;;26.11;64.91
62072;BME280;48031;48.542;13.232;2023-07-29T06:03:31;96965.84;;;26.04;64.43
62072;BME280;48031;48.542;13.232;2023-07-29T06:07:34;96968.53;;;25.34;64.24
62072;BME280;48031;48.542;13.232;2023-07-29T06:11:36;96964.72;;;25.89;64.24
62072;BME280;48031;48.542;13.232;2023-07-29T06:15:38;96962.34;;;26.42;63.66
62072;BME280;48031;48.542;13.232;2023-07-29T06:19:41;96969.03;;;26.57;62.21
62072;BME280;48031;48.542;13.232;2023-07-29T06:23:43;96983.91;;;27.25;60.34
62072;BME280;48031;48.542;13.232;2023-07-29T06:27:45;96987.41;;;26.80;61.23
62072;BME280;48031;48.542;13.232;2023-07-29T06:31:48;96984.13;;;26.94;60.61
62072;BME280;48031;48.542;13.232;2023-07-29T06:35:50;96988.84;;;27.55;60.58
62072;BME280;48031;48.542;13.232;2023-07-29T06:39:52;96979.63;;;27.77;57.68
62072;BME280;48031;48.542;13.232;2023-07-29T06:43:54;96973.09;;;27.66;60.32
62072;BME280;48031;48.542;13.232;2023-07-29T06:47:56;96974.38;;;27.26;61.68
62072;BME280;48031;48.542;13.232;2023-07-29T06:51:59;96964.47;;;27.29;60.82
62072;BME280;48031;48.542;13.232;2023-07-29T06:56:02;96965.50;;;27.89;59.01
62072;BME280;48031;48.542;13.232;2023-07-29T07:00:06;96977.81;;;27.20;59.34
62072;BME280;48031;48.542;13.232;2023-07-29T07:04:08;96967.47;;;28.15;58.48
62072;BME280;48031;48.542;13.232;2023-07-29T07:08:10;96961.97;;;28.19;55.84
62072;BME280;48031;48.542;13.232;2023-07-29T07:12:12;96971.72;;;27.79;57.46
62072;BME280;48031;48.542;13.232;2023-07-29T07:16:14;96959.22;;;28.52;54.80
62072;BME280;48031;48.542;13.232;2023-07-29T07:20:16;96959.25;;;28.56;54.86
62072;BME280;48031;48.542;13.232;2023-07-29T07:24:19;96934.53;;;29.28;53.41
62072;BME280;48031;48.542;13.232;2023-07-29T07:28:20;96948.34;;;29.47;52.58
62072;BME280;48031;48.542;13.232;2023-07-29T07:32:22;96954.34;;;30.00;52.62
62072;BME280;48031;48.542;13.232;2023-07-29T07:36:24;96962.69;;;28.42;53.99
62072;BME280;48031;48.542;13.232;2023-07-29T07:40:26;96950.44;;;29.61;50.43
62072;BME280;48031;48.542;13.232;2023-07-29T07:44:28;96955.59;;;28.81;51.73
62072;BME280;48031;48.542;13.232;2023-07-29T07:48:31;96943.91;;;29.94;50.91
62072;BME280;48031;48.542;13.232;2023-07-29T07:52:34;96942.59;;;30.42;49.05
62072;BME280;48031;48.542;13.232;2023-07-29T07:56:36;96930.22;;;29.34;51.26
62072;BME280;48031;48.542;13.232;2023-07-29T08:00:39;96943.09;;;29.93;51.27
62072;BME280;48031;48.542;13.232;2023-07-29T08:04:41;96933.94;;;29.49;51.37
62072;BME280;48031;48.542;13.232;2023-07-29T08:08:43;96933.53;;;29.47;53.24
62072;BME280;48031;48.542;13.232;2023-07-29T08:12:45;96927.16;;;30.01;53.61
62072;BME280;48031;48.542;13.232;2023-07-29T08:16:47;96927.16;;;29.97;48.26
62072;BME280;48031;48.542;13.232;2023-07-29T08:20:53;96929.88;;;30.52;49.03
62072;BME280;48031;48.542;13.232;2023-07-29T08:24:56;96935.19;;;30.89;47.58
62072;BME280;48031;48.542;13.232;2023-07-29T08:28:58;96938.50;;;32.22;46.94
62072;BME280;48031;48.542;13.232;2023-07-29T08:33:00;96943.69;;;31.14;47.58
62072;BME280;48031;48.542;13.232;2023-07-29T08:37:03;96971.09;;;29.93;48.21
62072;BME280;48031;48.542;13.232;2023-07-29T08:41:08;97012.75;;;28.28;53.15
62072;BME280;48031;48.542;13.232;2023-07-29T08:45:13;97049.44;;;25.17;62.44
62072;BME280;48031;48.542;13.232;2023-07-29T08:49:18;97557.25;;;21.01;100.00
62072;BME280;48031;48.542;13.232;2023-07-29T08:53:25;61634.44;;;-142.07;100.00
62072;BME280;48031;48.542;13.232;2023-07-29T08:57:28;97326.34;;;22.60;100.00
62072;BME280;48031;48.542;13.232;2023-07-29T09:01:31;97255.31;;;22.44;100.00
62072;BME280;48031;48.542;13.232;2023-07-29T09:05:35;61634.44;;;-142.07;100.00
62072;BME280;48031;48.542;13.232;2023-07-29T09:09:37;61634.44;;;-142.07;100.00
62072;BME280;48031;48.542;13.232;2023-07-29T09:13:39;61634.44;;;-142.07;100.00
62072;BME280;48031;48.542;13.232;2023-07-29T09:17:41;97141.81;;;24.25;100.00
62072;BME280;48031;48.542;13.232;2023-07-29T09:21:46;97160.84;;;25.27;100.00
62072;BME280;48031;48.542;13.232;2023-07-29T09:25:48;97126.69;;;23.53;100.00
62072;BME280;48031;48.542;13.232;2023-07-29T09:29:51;97114.72;;;25.82;100.00
62072;BME280;48031;48.542;13.232;2023-07-29T09:34:01;97094.09;;;27.00;100.00
62072;BME280;48031;48.542;13.232;2023-07-29T09:38:05;97302.03;;;26.02;100.00
62072;BME280;48031;48.542;13.232;2023-07-29T09:42:11;97376.69;;;27.65;100.00
62072;BME280;48031;48.542;13.232;2023-07-29T09:46:13;97303.25;;;28.16;100.00
62072;BME280;48031;48.542;13.232;2023-07-29T09:50:16;97249.44;;;27.22;100.00
62072;BME280;48031;48.542;13.232;2023-07-29T09:54:18;97243.22;;;28.25;100.00
62072;BME280;48031;48.542;13.232;2023-07-29T09:58:28;97195.56;;;28.15;100.00
62072;BME280;48031;48.542;13.232;2023-07-29T10:02:30;97175.72;;;28.20;100.00
62072;BME280;48031;48.542;13.232;2023-07-29T10:06:34;97172.47;;;28.89;100.00
62072;BME280;48031;48.542;13.232;2023-07-29T10:10:37;97046.69;;;28.30;100.00
62072;BME280;48031;48.542;13.232;2023-07-29T10:14:40;97030.84;;;29.30;100.00
62072;BME280;48031;48.542;13.232;2023-07-29T10:18:43;96989.66;;;29.64;100.00
62072;BME280;48031;48.542;13.232;2023-07-29T10:22:47;96723.75;;;31.11;100.00
62072;BME280;48031;48.542;13.232;2023-07-29T10:26:50;97128.03;;;30.59;100.00
62072;BME280;48031;48.542;13.232;2023-07-29T10:30:52;97128.78;;;30.08;100.00
62072;BME280;48031;48.542;13.232;2023-07-29T10:34:54;97102.00;;;30.10;100.00
62072;BME280;48031;48.542;13.232;2023-07-29T10:38:56;97093.00;;;32.29;100.00
62072;BME280;48031;48.542;13.232;2023-07-29T10:43:00;97089.78;;;32.34;100.00
62072;BME280;48031;48.542;13.232;2023-07-29T10:47:16;97089.50;;;31.10;100.00
62072;BME280;48031;48.542;13.232;2023-07-29T10:55:35;97078.75;;;36.62;100.00
62072;BME280;48031;48.542;13.232;2023-07-29T10:59:40;96955.38;;;37.79;67.04
62072;BME280;48031;48.542;13.232;2023-07-29T11:04:01;96947.75;;;40.25;39.39
62072;BME280;48031;48.542;13.232;2023-07-29T11:08:37;96946.06;;;42.17;35.58
62072;BME280;48031;48.542;13.232;2023-07-29T11:12:45;96931.47;;;46.23;26.66
62072;BME280;48031;48.542;13.232;2023-07-29T11:16:50;96909.53;;;46.86;24.45
62072;BME280;48031;48.542;13.232;2023-07-29T11:20:53;96916.19;;;50.22;22.05
62072;BME280;48031;48.542;13.232;2023-07-29T11:24:56;96935.78;;;39.83;37.61
62072;BME280;48031;48.542;13.232;2023-07-29T11:28:58;96924.16;;;40.72;34.53
62072;BME280;48031;48.542;13.232;2023-07-29T11:33:01;96931.34;;;40.29;34.65
62072;BME280;48031;48.542;13.232;2023-07-29T11:37:05;96944.03;;;37.11;37.44
62072;BME280;48031;48.542;13.232;2023-07-29T11:41:08;96945.41;;;35.20;42.67
62072;BME280;48031;48.542;13.232;2023-07-29T11:45:10;96936.81;;;36.04;39.72
62072;BME280;48031;48.542;13.232;2023-07-29T11:49:15;96938.03;;;33.87;47.00
62072;BME280;48031;48.542;13.232;2023-07-29T11:53:17;96938.78;;;32.70;49.09
62072;BME280;48031;48.542;13.232;2023-07-29T11:57:19;96933.25;;;32.42;49.04
62072;BME280;48031;48.542;13.232;2023-07-29T12:01:23;96933.75;;;31.59;50.94
62072;BME280;48031;48.542;13.232;2023-07-29T12:05:27;96934.16;;;31.68;53.44
62072;BME280;48031;48.542;13.232;2023-07-29T12:09:29;96946.22;;;29.37;54.60
62072;BME280;48031;48.542;13.232;2023-07-29T12:13:32;96950.16;;;30.31;55.92
62072;BME280;48031;48.542;13.232;2023-07-29T12:17:39;96934.25;;;29.37;56.88
62072;BME280;48031;48.542;13.232;2023-07-29T12:21:42;96959.72;;;28.61;60.27
62072;BME280;48031;48.542;13.232;2023-07-29T12:25:44;96964.56;;;27.82;62.28
62072;BME280;48031;48.542;13.232;2023-07-29T12:29:47;96970.19;;;27.36;68.06
62072;BME280;48031;48.542;13.232;2023-07-29T12:33:56;96980.59;;;27.62;71.13
62072;BME280;48031;48.542;13.232;2023-07-29T12:38:01;97008.03;;;25.27;94.74
62072;BME280;48031;48.542;13.232;2023-07-29T12:42:03;97023.97;;;24.59;100.00
62072;BME280;48031;48.542;13.232;2023-07-29T12:46:05;97004.84;;;25.73;100.00
62072;BME280;48031;48.542;13.232;2023-07-29T12:50:08;96956.84;;;27.26;87.69
62072;BME280;48031;48.542;13.232;2023-07-29T12:54:11;96966.59;;;26.36;83.11
62072;BME280;48031;48.542;13.232;2023-07-29T12:58:12;96945.28;;;27.24;82.99
62072;BME280;48031;48.542;13.232;2023-07-29T13:02:15;96906.53;;;30.37;71.28
62072;BME280;48031;48.542;13.232;2023-07-29T13:06:17;96864.16;;;40.23;44.32
62072;BME280;48031;48.542;13.232;2023-07-29T13:10:19;96882.06;;;33.48;56.00
62072;BME280;48031;48.542;13.232;2023-07-29T13:14:22;96861.19;;;33.42;54.08
62072;BME280;48031;48.542;13.232;2023-07-29T13:18:24;96852.44;;;36.26;47.09
62072;BME280;48031;48.542;13.232;2023-07-29T13:22:26;96843.66;;;50.31;22.47
62072;BME280;48031;48.542;13.232;2023-07-29T13:26:28;96839.66;;;49.76;20.56
62072;BME280;48031;48.542;13.232;2023-07-29T13:30:30;96841.69;;;49.92;22.20
62072;BME280;48031;48.542;13.232;2023-07-29T13:34:33;96844.53;;;45.47;24.24
62072;BME280;48031;48.542;13.232;2023-07-29T13:38:36;96853.31;;;49.59;20.06
62072;BME280;48031;48.542;13.232;2023-07-29T13:42:39;96861.66;;;50.59;19.19
62072;BME280;48031;48.542;13.232;2023-07-29T13:46:41;96861.00;;;52.89;17.03
62072;BME280;48031;48.542;13.232;2023-07-29T13:50:43;96874.31;;;49.09;20.14
62072;BME280;48031;48.542;13.232;2023-07-29T13:54:45;96869.06;;;42.44;28.07
62072;BME280;48031;48.542;13.232;2023-07-29T13:58:47;96877.38;;;47.08;22.09
62072;BME280;48031;48.542;13.232;2023-07-29T14:02:50;96874.00;;;49.91;19.00
62072;BME280;48031;48.542;13.232;2023-07-29T14:06:52;96868.22;;;52.82;17.73
62072;BME280;48031;48.542;13.232;2023-07-29T14:11:00;96873.28;;;53.45;14.55
62072;BME280;48031;48.542;13.232;2023-07-29T14:15:04;96860.94;;;47.82;19.83
62072;BME280;48031;48.542;13.232;2023-07-29T14:19:06;96856.41;;;37.72;32.59
62072;BME280;48031;48.542;13.232;2023-07-29T14:23:08;96850.19;;;46.83;21.85
62072;BME280;48031;48.542;13.232;2023-07-29T14:27:10;96846.34;;;39.12;33.29
62072;BME280;48031;48.542;13.232;2023-07-29T14:31:12;96856.91;;;39.12;31.52
62072;BME280;48031;48.542;13.232;2023-07-29T14:35:15;96875.19;;;38.56;31.16
62072;BME280;48031;48.542;13.232;2023-07-29T14:39:19;96873.47;;;34.41;37.97
62072;BME280;48031;48.542;13.232;2023-07-29T14:43:21;96892.75;;;32.32;42.92
62072;BME280;48031;48.542;13.232;2023-07-29T14:47:23;96874.03;;;30.11;47.79
62072;BME280;48031;48.542;13.232;2023-07-29T14:51:26;96869.06;;;30.67;46.11
62072;BME280;48031;48.542;13.232;2023-07-29T14:55:28;96876.78;;;31.55;49.83
62072;BME280;48031;48.542;13.232;2023-07-29T14:59:30;96870.41;;;30.11;50.85
62072;BME280;48031;48.542;13.232;2023-07-29T15:03:34;96859.22;;;30.07;50.18
62072;BME280;48031;48.542;13.232;2023-07-29T15:07:37;96849.84;;;32.17;46.41
62072;BME280;48031;48.542;13.232;2023-07-29T15:11:40;96847.16;;;31.08;47.25
62072;BME280;48031;48.542;13.232;2023-07-29T15:15:43;96854.78;;;31.64;47.81
62072;BME280;48031;48.542;13.232;2023-07-29T15:19:47;96852.75;;;32.83;45.26
62072;BME280;48031;48.542;13.232;2023-07-29T15:23:51;96848.34;;;31.38;46.12
62072;BME280;48031;48.542;13.232;2023-07-29T15:27:54;96824.84;;;33.58;43.60
62072;BME280;48031;48.542;13.232;2023-07-29T15:31:57;96835.44;;;30.67;48.31
62072;BME280;48031;48.542;13.232;2023-07-29T15:36:01;96836.25;;;30.64;49.88
62072;BME280;48031;48.542;13.232;2023-07-29T15:40:05;96826.22;;;30.52;49.57
62072;BME280;48031;48.542;13.232;2023-07-29T15:44:09;96826.19;;;29.69;51.47
62072;BME280;48031;48.542;13.232;2023-07-29T15:48:11;96823.16;;;29.37;52.65
62072;BME280;48031;48.542;13.232;2023-07-29T15:52:13;96817.75;;;29.11;51.88
62072;BME280;48031;48.542;13.232;2023-07-29T15:56:17;96811.97;;;28.49;52.69
62072;BME280;48031;48.542;13.232;2023-07-29T16:00:20;96807.16;;;28.46;52.21
62072;BME280;48031;48.542;13.232;2023-07-29T16:04:24;96814.06;;;28.96;52.28
62072;BME280;48031;48.542;13.232;2023-07-29T16:08:28;96821.13;;;28.13;53.74
62072;BME280;48031;48.542;13.232;2023-07-29T16:12:30;96844.50;;;28.04;53.73
62072;BME280;48031;48.542;13.232;2023-07-29T16:16:32;96848.59;;;28.10;54.57
62072;BME280;48031;48.542;13.232;2023-07-29T16:20:35;96861.75;;;27.80;54.95
62072;BME280;48031;48.542;13.232;2023-07-29T16:24:38;96850.91;;;28.35;54.45
62072;BME280;48031;48.542;13.232;2023-07-29T16:28:42;96851.84;;;28.13;54.71
62072;BME280;48031;48.542;13.232;2023-07-29T16:32:45;96840.94;;;28.37;54.07
62072;BME280;48031;48.542;13.232;2023-07-29T16:36:47;96837.44;;;28.77;53.34
62072;BME280;48031;48.542;13.232;2023-07-29T16:40:50;96855.59;;;29.45;53.28
62072;BME280;48031;48.542;13.232;2023-07-29T16:45:12;96861.56;;;29.40;52.41
62072;BME280;48031;48.542;13.232;2023-07-29T16:49:15;96857.59;;;30.03;52.05
62072;BME280;48031;48.542;13.232;2023-07-29T16:53:25;96857.31;;;30.33;54.61
62072;BME280;48031;48.542;13.232;2023-07-29T16:57:27;96868.34;;;29.94;54.35
62072;BME280;48031;48.542;13.232;2023-07-29T17:01:29;96882.13;;;30.34;52.07
62072;BME280;48031;48.542;13.232;2023-07-29T17:05:33;96879.53;;;29.94;53.30
62072;BME280;48031;48.542;13.232;2023-07-29T17:09:36;96892.94;;;27.89;56.56
62072;BME280;48031;48.542;13.232;2023-07-29T17:13:39;96913.75;;;27.95;58.54
62072;BME280;48031;48.542;13.232;2023-07-29T17:17:45;96919.50;;;27.30;59.93
62072;BME280;48031;48.542;13.232;2023-07-29T17:21:47;96910.75;;;27.32;60.87
62072;BME280;48031;48.542;13.232;2023-07-29T17:25:50;96909.81;;;26.60;62.95
62072;BME280;48031;48.542;13.232;2023-07-29T17:29:52;96914.25;;;27.75;61.42
62072;BME280;48031;48.542;13.232;2023-07-29T17:33:55;96925.63;;;27.89;60.33
62072;BME280;48031;48.542;13.232;2023-07-29T17:37:58;96926.53;;;27.96;60.32
62072;BME280;48031;48.542;13.232;2023-07-29T17:42:02;96924.94;;;27.69;59.58
62072;BME280;48031;48.542;13.232;2023-07-29T17:46:04;96918.63;;;28.62;58.01
62072;BME280;48031;48.542;13.232;2023-07-29T17:50:06;96931.66;;;27.42;60.29
62072;BME280;48031;48.542;13.232;2023-07-29T17:54:08;96945.84;;;27.82;58.88
62072;BME280;48031;48.542;13.232;2023-07-29T17:58:10;96937.13;;;26.93;62.39
62072;BME280;48031;48.542;13.232;2023-07-29T18:02:15;96913.63;;;27.13;62.09
62072;BME280;48031;48.542;13.232;2023-07-29T18:06:18;96921.31;;;27.95;60.05
62072;BME280;48031;48.542;13.232;2023-07-29T18:10:21;96925.50;;;26.68;61.06
62072;BME280;48031;48.542;13.232;2023-07-29T18:14:26;96918.09;;;27.17;61.32
62072;BME280;48031;48.542;13.232;2023-07-29T18:18:29;96919.69;;;27.64;61.09
62072;BME280;48031;48.542;13.232;2023-07-29T18:22:31;96918.47;;;27.42;60.79
62072;BME280;48031;48.542;13.232;2023-07-29T18:26:34;96915.34;;;27.21;60.75
62072;BME280;48031;48.542;13.232;2023-07-29T18:30:41;96927.41;;;26.64;62.63
62072;BME280;48031;48.542;13.232;2023-07-29T18:34:45;96923.78;;;26.82;61.54
62072;BME280;48031;48.542;13.232;2023-07-29T18:38:49;96924.63;;;26.64;62.35
62072;BME280;48031;48.542;13.232;2023-07-29T18:42:51;96925.91;;;27.08;61.61
62072;BME280;48031;48.542;13.232;2023-07-29T18:46:53;96932.91;;;27.70;60.11
62072;BME280;48031;48.542;13.232;2023-07-29T18:50:56;96930.94;;;27.25;59.23
62072;BME280;48031;48.542;13.232;2023-07-29T18:54:59;96958.13;;;27.51;60.70
62072;BME280;48031;48.542;13.232;2023-07-29T18:59:02;96964.97;;;27.12;61.13
62072;BME280;48031;48.542;13.232;2023-07-29T19:03:04;96962.09;;;27.31;60.49
62072;BME280;48031;48.542;13.232;2023-07-29T19:07:07;96963.88;;;26.59;62.50
62072;BME280;48031;48.542;13.232;2023-07-29T19:11:10;96972.38;;;26.66;62.16
62072;BME280;48031;48.542;13.232;2023-07-29T19:15:12;96980.22;;;26.79;64.14
62072;BME280;48031;48.542;13.232;2023-07-29T19:19:15;96986.19;;;25.89;65.49
62072;BME280;48031;48.542;13.232;2023-07-29T19:23:19;96984.16;;;27.17;62.94
62072;BME280;48031;48.542;13.232;2023-07-29T19:27:22;96972.25;;;26.97;62.77
62072;BME280;48031;48.542;13.232;2023-07-29T19:31:24;96979.94;;;28.21;59.26
62072;BME280;48031;48.542;13.232;2023-07-29T19:35:27;96972.69;;;27.64;60.00
62072;BME280;48031;48.542;13.232;2023-07-29T19:39:30;96982.84;;;26.53;63.24
62072;BME280;48031;48.542;13.232;2023-07-29T19:43:32;96991.41;;;27.21;62.18
62072;BME280;48031;48.542;13.232;2023-07-29T19:47:34;96992.28;;;27.48;61.73
62072;BME280;48031;48.542;13.232;2023-07-29T19:51:37;96998.56;;;27.64;61.65
62072;BME280;48031;48.542;13.232;2023-07-29T19:55:40;96997.13;;;27.74;61.74
62072;BME280;48031;48.542;13.232;2023-07-29T19:59:42;96992.88;;;27.57;61.46
62072;BME280;48031;48.542;13.232;2023-07-29T20:03:50;96989.97;;;27.31;62.35
62072;BME280;48031;48.542;13.232;2023-07-29T20:07:55;96989.91;;;27.27;62.53
62072;BME280;48031;48.542;13.232;2023-07-29T20:11:57;96997.81;;;27.67;61.04
62072;BME280;48031;48.542;13.232;2023-07-29T20:15:59;96996.13;;;26.98;63.24
62072;BME280;48031;48.542;13.232;2023-07-29T20:20:03;97001.53;;;26.72;63.91
62072;BME280;48031;48.542;13.232;2023-07-29T20:24:05;96992.69;;;26.66;63.42
62072;BME280;48031;48.542;13.232;2023-07-29T20:28:08;96993.63;;;27.12;61.80
62072;BME280;48031;48.542;13.232;2023-07-29T20:32:10;96994.50;;;27.39;61.90
62072;BME280;48031;48.542;13.232;2023-07-29T20:36:12;97002.84;;;27.16;62.80
62072;BME280;48031;48.542;13.232;2023-07-29T20:40:16;96996.03;;;27.56;60.55
62072;BME280;48031;48.542;13.232;2023-07-29T20:44:18;96994.25;;;27.48;60.40
62072;BME280;48031;48.542;13.232;2023-07-29T20:48:20;97003.59;;;27.55;59.88
62072;BME280;48031;48.542;13.232;2023-07-29T20:52:23;97008.00;;;27.37;59.76
62072;BME280;48031;48.542;13.232;2023-07-29T20:56:25;97009.38;;;27.24;60.88
62072;BME280;48031;48.542;13.232;2023-07-29T21:00:27;97010.56;;;26.84;62.42
62072;BME280;48031;48.542;13.232;2023-07-29T21:04:32;97014.47;;;26.26;62.64
62072;BME280;48031;48.542;13.232;2023-07-29T21:08:35;97016.69;;;26.90;61.91
62072;BME280;48031;48.542;13.232;2023-07-29T21:12:38;97002.25;;;27.49;60.47
62072;BME280;48031;48.542;13.232;2023-07-29T21:16:40;97006.41;;;27.59;59.64
62072;BME280;48031;48.542;13.232;2023-07-29T21:20:42;97006.16;;;27.90;58.66